Time;durP1;ratioP1;P1;durP2;ratioP2;P2;SDS_P1;SDS_P2;PMS_P1;PMS_P2;Temp;Humidity;BMP_temperature;BMP_pressure;BME280_temperature;BME280_humidity;BME280_pressure;Samples;Min_cycle;Max_cycle;Signal;HPM_P1;HPM_P2
2020/12/11 00:01:30;;;;;;;28.63;13.27;;;3.70;85.30;;;;;;5022013;28;20255;-74
2020/12/11 00:03:56;;;;;;;30.63;14.82;;;3.70;86.00;;;;;;5021594;28;20199;-74
2020/12/11 00:06:21;;;;;;;33.83;14.67;;;3.70;85.60;;;;;;5023667;28;20185;-77
2020/12/11 00:08:48;;;;;;;28.80;12.90;;;3.70;85.60;;;;;;5019443;28;20189;-74
2020/12/11 00:11:14;;;;;;;29.93;13.97;;;3.60;85.60;;;;;;5024739;28;20213;-75
2020/12/11 00:13:40;;;;;;;35.00;15.03;;;3.50;85.20;;;;;;5024780;28;20457;-75
2020/12/11 00:16:06;;;;;;;27.47;13.90;;;3.50;84.90;;;;;;5021195;28;20271;-76
2020/12/11 00:18:32;;;;;;;27.13;14.13;;;3.50;85.00;;;;;;5037934;28;20454;-75
2020/12/11 00:21:00;;;;;;;31.23;14.37;;;3.50;85.50;;;;;;5025866;28;20447;-74
2020/12/11 00:23:27;;;;;;;32.85;14.15;;;3.50;86.00;;;;;;5021422;28;20436;-74
2020/12/11 00:25:58;;;;;;;30.05;13.95;;;3.50;85.70;;;;;;5011736;28;20185;-74
2020/12/11 00:28:25;;;;;;;30.27;13.75;;;3.50;85.00;;;;;;5011066;28;20178;-75
2020/12/11 00:30:51;;;;;;;29.42;15.05;;;3.50;84.70;;;;;;5011814;28;20878;-74
2020/12/11 00:33:17;;;;;;;34.10;14.73;;;3.50;85.00;;;;;;5011567;28;20297;-74
2020/12/11 00:35:43;;;;;;;28.90;13.87;;;3.40;84.70;;;;;;5011501;28;20197;-74
2020/12/11 00:38:08;;;;;;;25.60;13.10;;;3.30;85.20;;;;;;5011021;28;20185;-75
2020/12/11 00:40:34;;;;;;;28.00;13.23;;;3.40;85.50;;;;;;5028308;28;20573;-74
2020/12/11 00:42:59;;;;;;;26.60;13.80;;;3.40;84.60;;;;;;5032093;28;20632;-73
2020/12/11 00:45:25;;;;;;;27.63;14.40;;;3.30;84.90;;;;;;5032525;28;20205;-73
2020/12/11 00:47:51;;;;;;;28.47;13.23;;;3.30;84.90;;;;;;5032595;28;20185;-72
2020/12/11 00:50:17;;;;;;;26.53;12.80;;;3.20;85.50;;;;;;5030423;28;20568;-76
2020/12/11 00:52:42;;;;;;;29.13;13.97;;;3.10;86.20;;;;;;5030004;28;20213;-73
2020/12/11 00:55:08;;;;;;;25.17;13.43;;;3.00;85.70;;;;;;5027288;28;20193;-77
2020/12/11 00:57:34;;;;;;;24.13;12.70;;;3.00;85.90;;;;;;5020486;28;20216;-75
2020/12/11 00:59:59;;;;;;;25.13;12.30;;;3.00;85.60;;;;;;5027371;28;20212;-76
2020/12/11 01:02:25;;;;;;;25.30;11.67;;;3.00;84.90;;;;;;5031756;28;20247;-74
2020/12/11 01:04:51;;;;;;;30.87;13.20;;;3.00;85.00;;;;;;5031414;28;20189;-75
2020/12/11 01:07:17;;;;;;;25.63;13.43;;;3.00;85.70;;;;;;5021287;28;20697;-74
2020/12/11 01:09:42;;;;;;;29.77;13.37;;;3.00;86.30;;;;;;5060472;28;20220;-74
2020/12/11 01:12:08;;;;;;;20.83;11.13;;;3.10;86.60;;;;;;5031912;28;20184;-73
2020/12/11 01:14:34;;;;;;;26.43;12.97;;;3.10;86.50;;;;;;5031217;28;20216;-74
2020/12/11 01:16:59;;;;;;;25.90;12.03;;;3.10;86.30;;;;;;5032029;28;20644;-74
2020/12/11 01:19:25;;;;;;;27.73;12.73;;;3.10;86.60;;;;;;5030098;28;21048;-76
2020/12/11 01:21:51;;;;;;;25.90;11.27;;;3.10;86.90;;;;;;5034869;28;20201;-76
2020/12/11 01:24:17;;;;;;;21.63;11.77;;;3.10;86.90;;;;;;5039715;28;20267;-74
2020/12/11 01:26:46;;;;;;;23.03;11.40;;;3.10;86.00;;;;;;5045856;28;20268;-74
2020/12/11 01:29:12;;;;;;;25.23;12.48;;;3.10;85.50;;;;;;5031579;28;20536;-75
2020/12/11 01:31:37;;;;;;;25.50;11.33;;;3.00;85.70;;;;;;5031384;28;20212;-75
2020/12/11 01:34:03;;;;;;;22.87;11.03;;;3.00;85.90;;;;;;5031652;28;20216;-74
2020/12/11 01:36:29;;;;;;;22.57;12.10;;;2.90;86.50;;;;;;5032591;28;20235;-73
2020/12/11 01:38:54;;;;;;;23.17;12.73;;;2.90;86.90;;;;;;5033949;28;20930;-72
2020/12/11 01:41:21;;;;;;;24.13;12.63;;;2.80;87.10;;;;;;5033093;28;20224;-74
2020/12/11 01:43:48;;;;;;;27.08;12.38;;;2.90;87.60;;;;;;5022175;28;20436;-73
2020/12/11 01:46:16;;;;;;;28.73;12.40;;;2.90;87.70;;;;;;5017859;28;20197;-75
2020/12/11 01:48:42;;;;;;;24.13;12.80;;;2.90;87.30;;;;;;5034271;28;20189;-73
2020/12/11 01:51:08;;;;;;;25.83;11.55;;;2.80;87.00;;;;;;5034710;28;20223;-74
2020/12/11 01:53:35;;;;;;;22.40;10.97;;;2.70;86.80;;;;;;5036640;28;20221;-74
2020/12/11 01:56:05;;;;;;;23.60;12.27;;;2.60;86.90;;;;;;5041644;28;20431;-73
2020/12/11 01:58:34;;;;;;;22.27;10.80;;;2.60;87.00;;;;;;5043753;28;20189;-74
2020/12/11 02:01:02;;;;;;;23.20;10.77;;;2.50;87.30;;;;;;5037717;28;20263;-75
2020/12/11 02:03:28;;;;;;;24.33;11.55;;;2.40;87.80;;;;;;5037391;28;20262;-74
2020/12/11 02:05:54;;;;;;;24.33;11.73;;;2.40;88.00;;;;;;5036004;28;20244;-74
2020/12/11 02:08:20;;;;;;;24.13;11.40;;;2.40;88.00;;;;;;5033407;28;20217;-74
2020/12/11 02:10:46;;;;;;;27.60;11.80;;;2.40;88.30;;;;;;5035864;28;20684;-75
2020/12/11 02:13:12;;;;;;;28.13;12.52;;;2.40;88.60;;;;;;5035758;28;20201;-75
2020/12/11 02:15:40;;;;;;;27.60;13.17;;;2.40;88.60;;;;;;5031918;28;20189;-73
2020/12/11 02:18:05;;;;;;;23.60;11.60;;;2.40;88.30;;;;;;5020492;28;20427;-72
2020/12/11 02:20:31;;;;;;;25.20;12.40;;;2.40;88.40;;;;;;5031061;28;20292;-71
2020/12/11 02:22:57;;;;;;;24.67;11.30;;;2.50;88.30;;;;;;5029898;28;20193;-75
2020/12/11 02:25:23;;;;;;;26.57;12.03;;;2.50;88.00;;;;;;5019032;28;20261;-75
2020/12/11 02:27:48;;;;;;;23.63;12.07;;;2.40;88.00;;;;;;5027972;28;20660;-74
2020/12/11 02:30:15;;;;;;;23.57;12.70;;;2.30;88.40;;;;;;5028535;28;20263;-72
2020/12/11 02:32:41;;;;;;;23.45;11.68;;;2.30;88.70;;;;;;5030216;28;20460;-76
2020/12/11 02:35:07;;;;;;;23.40;11.45;;;2.30;89.30;;;;;;5029958;28;20690;-74
2020/12/11 02:37:35;;;;;;;23.90;11.70;;;2.30;89.90;;;;;;5030885;28;20587;-72
2020/12/11 02:40:02;;;;;;;28.95;13.07;;;2.30;90.20;;;;;;5030886;28;20641;-73
2020/12/11 02:42:27;;;;;;;23.25;11.38;;;2.20;90.40;;;;;;5030633;28;20197;-74
2020/12/11 02:44:53;;;;;;;27.10;12.17;;;2.20;90.60;;;;;;5031416;28;20246;-75
2020/12/11 02:47:19;;;;;;;24.90;12.00;;;2.20;90.80;;;;;;5034761;28;20192;-73
2020/12/11 02:49:45;;;;;;;24.20;12.30;;;2.20;90.80;;;;;;5034683;28;20235;-75
2020/12/11 02:52:10;;;;;;;24.07;11.87;;;2.20;90.50;;;;;;5036587;28;20189;-73
2020/12/11 02:54:36;;;;;;;24.63;12.27;;;2.10;90.30;;;;;;5024356;28;20204;-73
2020/12/11 02:57:02;;;;;;;29.80;12.40;;;2.10;90.50;;;;;;5037467;28;20660;-73
2020/12/11 02:59:27;;;;;;;27.10;12.20;;;2.10;90.50;;;;;;5033209;28;20807;-74
2020/12/11 03:01:53;;;;;;;20.97;11.53;;;2.10;90.60;;;;;;5031846;28;20188;-73
2020/12/11 03:04:19;;;;;;;27.40;12.47;;;2.20;90.80;;;;;;5021197;28;20189;-73
2020/12/11 03:06:44;;;;;;;24.97;12.13;;;2.20;90.50;;;;;;5035575;28;20224;-73
2020/12/11 03:09:10;;;;;;;28.10;12.90;;;2.20;90.40;;;;;;5039450;28;20262;-74
2020/12/11 03:11:36;;;;;;;25.13;12.37;;;2.20;90.30;;;;;;5039522;28;20204;-75
2020/12/11 03:14:02;;;;;;;25.00;11.83;;;2.20;90.40;;;;;;5035936;28;20213;-73
2020/12/11 03:16:27;;;;;;;26.23;12.90;;;2.20;90.20;;;;;;5034733;28;20185;-75
2020/12/11 03:18:53;;;;;;;25.33;12.83;;;2.20;90.40;;;;;;5034466;28;20197;-74
2020/12/11 03:21:19;;;;;;;29.97;13.97;;;2.10;90.40;;;;;;5033528;28;20268;-74
2020/12/11 03:23:45;;;;;;;30.97;13.77;;;2.00;90.60;;;;;;5033208;28;20197;-75
2020/12/11 03:26:10;;;;;;;30.47;14.40;;;2.00;91.10;;;;;;5032630;28;20260;-74
2020/12/11 03:28:36;;;;;;;31.17;14.70;;;2.00;91.20;;;;;;5032506;28;20194;-75
2020/12/11 03:31:02;;;;;;;27.77;13.70;;;2.10;91.20;;;;;;5032585;28;20247;-76
2020/12/11 03:33:28;;;;;;;31.92;14.20;;;2.10;91.00;;;;;;5032760;28;20216;-74
2020/12/11 03:35:54;;;;;;;27.60;12.93;;;2.10;91.00;;;;;;5033745;28;20178;-74
2020/12/11 03:38:20;;;;;;;27.77;13.33;;;2.10;91.00;;;;;;5036085;28;20186;-72
2020/12/11 03:40:46;;;;;;;35.75;14.30;;;2.10;91.00;;;;;;5031925;28;20292;-74
2020/12/11 03:43:12;;;;;;;26.30;13.03;;;2.10;90.90;;;;;;5032158;28;20635;-75
2020/12/11 03:45:37;;;;;;;27.83;13.10;;;2.00;91.00;;;;;;5032216;28;20443;-75
2020/12/11 03:48:03;;;;;;;30.93;14.20;;;2.00;91.10;;;;;;5033304;28;20264;-73
2020/12/11 03:50:29;;;;;;;29.30;13.63;;;1.90;91.40;;;;;;5033721;28;20292;-74
2020/12/11 03:52:55;;;;;;;30.10;14.40;;;1.90;91.50;;;;;;5034282;28;20471;-74
2020/12/11 03:55:21;;;;;;;29.52;14.07;;;1.90;91.70;;;;;;5034029;28;20193;-75
2020/12/11 03:57:47;;;;;;;34.50;14.53;;;2.00;91.80;;;;;;5032211;28;20177;-74
2020/12/11 04:00:12;;;;;;;30.97;14.47;;;1.90;91.70;;;;;;5032731;28;20205;-76
2020/12/11 04:02:38;;;;;;;32.13;14.70;;;1.90;91.70;;;;;;5032584;28;20189;-74
2020/12/11 04:05:07;;;;;;;30.33;15.13;;;1.90;91.90;;;;;;5033379;28;20191;-76
2020/12/11 04:07:33;;;;;;;34.25;15.00;;;1.80;92.00;;;;;;5019696;28;20185;-73
2020/12/11 04:09:59;;;;;;;32.17;14.43;;;1.80;92.20;;;;;;5033332;28;20201;-74
2020/12/11 04:12:25;;;;;;;30.98;14.68;;;1.80;92.20;;;;;;5019868;28;20929;-75
2020/12/11 04:14:51;;;;;;;30.93;15.07;;;1.70;92.30;;;;;;5032843;28;20180;-73
2020/12/11 04:17:17;;;;;;;31.00;15.00;;;1.80;92.80;;;;;;5030697;28;20181;-75
2020/12/11 04:19:42;;;;;;;34.50;14.30;;;1.80;92.90;;;;;;5032201;28;20439;-77
2020/12/11 04:22:08;;;;;;;29.60;13.37;;;1.80;93.00;;;;;;5032836;28;20215;-75
2020/12/11 04:24:34;;;;;;;32.00;14.47;;;1.80;93.10;;;;;;5032595;28;20562;-75
2020/12/11 04:26:59;;;;;;;29.60;14.43;;;1.80;93.10;;;;;;5032435;28;20189;-72
2020/12/11 04:29:25;;;;;;;36.43;14.60;;;1.80;93.00;;;;;;5032243;28;20196;-73
2020/12/11 04:31:59;;;;;;;38.80;16.70;;;1.80;92.90;;;;;;5032406;28;20185;-75
2020/12/11 04:34:25;;;;;;;32.38;14.38;;;1.80;92.80;;;;;;5031695;28;20212;-73
2020/12/11 04:36:52;;;;;;;36.08;16.13;;;1.70;92.90;;;;;;5030874;28;20189;-73
2020/12/11 04:39:18;;;;;;;34.47;15.82;;;1.70;92.80;;;;;;5029592;28;20182;-75
2020/12/11 04:41:45;;;;;;;35.00;14.93;;;1.60;92.80;;;;;;5031026;28;20199;-73
2020/12/11 04:44:11;;;;;;;40.30;16.40;;;1.60;92.60;;;;;;5030299;28;20231;-75
2020/12/11 04:46:37;;;;;;;38.40;14.83;;;1.50;92.60;;;;;;5030756;28;20680;-71
2020/12/11 04:49:03;;;;;;;32.70;15.25;;;1.50;92.80;;;;;;5031637;28;20428;-72
2020/12/11 04:51:30;;;;;;;35.60;15.85;;;1.40;92.90;;;;;;5029818;28;20232;-74
2020/12/11 04:53:57;;;;;;;39.80;16.05;;;1.30;93.00;;;;;;5031767;28;20266;-72
2020/12/11 04:56:24;;;;;;;40.40;15.90;;;1.30;93.10;;;;;;5022974;28;20220;-73
2020/12/11 04:58:52;;;;;;;39.72;15.85;;;1.30;93.30;;;;;;5009930;28;20182;-76
2020/12/11 05:01:34;;;;;;;40.47;15.50;;;1.20;93.40;;;;;;5008743;28;20202;-75
2020/12/11 05:04:01;;;;;;;40.17;16.08;;;1.20;93.60;;;;;;5026247;28;20777;-74
2020/12/11 05:06:27;;;;;;;37.75;15.70;;;1.20;93.50;;;;;;5028269;28;20197;-76
2020/12/11 05:09:28;;;;;;;39.67;15.30;;;1.10;93.50;;;;;;5029366;28;20196;-74
2020/12/11 05:11:54;;;;;;;39.00;15.85;;;1.00;93.80;;;;;;5025466;28;20208;-75
2020/12/11 05:14:25;;;;;;;39.20;17.90;;;1.10;94.00;;;;;;5008967;28;20225;-73
2020/12/11 05:17:02;;;;;;;37.72;16.05;;;1.10;93.90;;;;;;4994481;28;20708;-77
2020/12/11 05:19:30;;;;;;;34.03;15.07;;;1.10;93.90;;;;;;4993634;28;20782;-74
2020/12/11 05:22:16;;;;;;;38.90;15.60;;;1.10;93.90;;;;;;5015986;28;20285;-74
2020/12/11 05:24:47;;;;;;;34.13;13.82;;;1.00;93.90;;;;;;5028459;28;20300;-74
2020/12/11 05:27:38;;;;;;;34.65;15.15;;;1.00;94.00;;;;;;5028950;28;20668;-75
2020/12/11 05:30:10;;;;;;;40.28;15.40;;;1.00;94.00;;;;;;4996556;28;20214;-75
2020/12/11 05:32:39;;;;;;;32.97;14.70;;;0.90;93.90;;;;;;5019146;28;20243;-73
2020/12/11 05:35:19;;;;;;;40.17;16.45;;;0.90;93.90;;;;;;5013271;28;20213;-73
2020/12/11 05:37:49;;;;;;;36.75;16.30;;;0.90;93.90;;;;;;5006109;28;20185;-73
2020/12/11 05:40:40;;;;;;;41.30;16.27;;;0.80;93.90;;;;;;5015686;28;20261;-75
2020/12/11 05:43:08;;;;;;;43.13;16.70;;;0.90;93.70;;;;;;5012080;28;20770;-73
2020/12/11 05:45:36;;;;;;;33.00;13.98;;;0.90;93.70;;;;;;5028513;28;20271;-74
2020/12/11 05:48:04;;;;;;;37.30;15.50;;;0.90;93.60;;;;;;5035093;28;20241;-75
2020/12/11 05:50:30;;;;;;;38.20;16.40;;;0.90;93.20;;;;;;5030976;28;20229;-75
2020/12/11 05:52:56;;;;;;;37.20;15.43;;;0.90;93.00;;;;;;5030679;28;20267;-75
2020/12/11 05:55:23;;;;;;;42.60;16.17;;;0.90;93.20;;;;;;5030525;28;20968;-76
2020/12/11 05:57:54;;;;;;;36.83;16.88;;;0.90;93.50;;;;;;5030551;28;20427;-74
2020/12/11 06:00:20;;;;;;;36.55;15.10;;;0.90;93.60;;;;;;5030584;28;20205;-77
2020/12/11 06:02:50;;;;;;;35.93;16.80;;;0.90;93.50;;;;;;5029490;28;20200;-76
2020/12/11 06:05:21;;;;;;;37.00;14.15;;;0.90;93.50;;;;;;5029569;28;20523;-76
2020/12/11 06:07:48;;;;;;;33.47;14.85;;;0.90;93.20;;;;;;5030883;28;20565;-75
2020/12/11 06:10:16;;;;;;;41.08;16.23;;;0.90;93.20;;;;;;5033028;28;20205;-73
2020/12/11 06:12:42;;;;;;;35.45;15.93;;;0.90;92.90;;;;;;5033548;28;20235;-76
2020/12/11 06:15:27;;;;;;;33.25;15.30;;;0.90;92.80;;;;;;5050227;28;20253;-76
2020/12/11 06:18:16;;;;;;;40.75;14.57;;;0.90;92.60;;;;;;5032979;28;20292;-75
2020/12/11 06:20:45;;;;;;;45.58;16.63;;;0.80;92.70;;;;;;5018474;28;20237;-74
2020/12/11 06:23:40;;;;;;;32.85;13.20;;;0.90;92.70;;;;;;5030919;28;20189;-72
2020/12/11 06:26:05;;;;;;;43.05;15.32;;;0.80;92.60;;;;;;4999055;28;20205;-72
2020/12/11 06:28:41;;;;;;;33.83;15.03;;;0.90;92.70;;;;;;5017198;28;20682;-74
2020/12/11 06:31:18;;;;;;;37.65;15.02;;;0.90;92.80;;;;;;4994342;28;20248;-74
2020/12/11 06:33:46;;;;;;;39.60;15.90;;;1.00;92.60;;;;;;5018803;28;20219;-74
2020/12/11 06:36:13;;;;;;;40.80;15.25;;;1.00;92.50;;;;;;5012504;28;20193;-74
2020/12/11 06:38:50;;;;;;;35.13;14.32;;;1.10;92.20;;;;;;5017582;28;20212;-73
2020/12/11 06:41:39;;;;;;;36.53;15.05;;;1.10;91.40;;;;;;5006744;28;20241;-73
2020/12/11 06:44:10;;;;;;;35.33;14.20;;;1.00;91.30;;;;;;5011640;28;20213;-76
2020/12/11 06:46:36;;;;;;;28.92;12.13;;;1.00;91.50;;;;;;5003623;28;20668;-74
2020/12/11 06:49:19;;;;;;;37.03;15.80;;;1.10;91.50;;;;;;5021527;28;20205;-74
2020/12/11 06:51:45;;;;;;;29.48;13.20;;;1.10;91.30;;;;;;5002413;28;20255;-74
2020/12/11 06:54:30;;;;;;;34.13;14.30;;;1.10;91.10;;;;;;4998188;28;20214;-74
2020/12/11 06:56:58;;;;;;;29.60;11.63;;;1.10;91.10;;;;;;5021061;28;20291;-75
2020/12/11 06:59:32;;;;;;;29.27;12.73;;;1.10;91.00;;;;;;5021570;28;20286;-73
2020/12/11 07:02:05;;;;;;;33.40;14.23;;;1.10;90.70;;;;;;5001684;28;20661;-77
2020/12/11 07:04:49;;;;;;;34.75;14.15;;;1.10;90.30;;;;;;5031425;28;20185;-76
2020/12/11 07:07:14;;;;;;;35.65;13.85;;;1.10;90.50;;;;;;5029705;28;20199;-75
2020/12/11 07:09:44;;;;;;;36.00;16.27;;;1.10;90.60;;;;;;5031838;28;20292;-75
2020/12/11 07:12:11;;;;;;;32.20;14.40;;;1.10;90.60;;;;;;5033706;28;20665;-73
2020/12/11 07:14:37;;;;;;;32.33;12.77;;;1.10;90.70;;;;;;5033819;28;20188;-76
2020/12/11 07:17:03;;;;;;;32.07;12.90;;;1.10;90.90;;;;;;5035333;28;20185;-75
2020/12/11 07:19:38;;;;;;;32.22;13.77;;;1.10;91.00;;;;;;5037414;28;20169;-74
2020/12/11 07:22:05;;;;;;;31.95;14.13;;;1.20;90.80;;;;;;5036583;28;20177;-74
2020/12/11 07:24:32;;;;;;;32.75;15.05;;;1.10;90.70;;;;;;5035572;28;20189;-75
2020/12/11 07:27:02;;;;;;;35.25;14.57;;;1.10;90.80;;;;;;5030901;28;20185;-72
2020/12/11 07:29:28;;;;;;;33.80;14.05;;;1.10;91.00;;;;;;5029664;28;20184;-74
2020/12/11 07:31:55;;;;;;;32.57;14.03;;;1.20;91.10;;;;;;5017014;28;20188;-74
2020/12/11 07:34:29;;;;;;;36.50;13.93;;;1.30;91.00;;;;;;5032377;28;20216;-73
2020/12/11 07:36:58;;;;;;;33.03;13.73;;;1.30;90.80;;;;;;5034373;28;20182;-73
2020/12/11 07:39:26;;;;;;;37.75;15.45;;;1.30;90.50;;;;;;5033033;28;20185;-75
2020/12/11 07:41:53;;;;;;;29.00;13.00;;;1.40;90.70;;;;;;5023673;28;20174;-76
2020/12/11 07:44:30;;;;;;;35.08;14.45;;;1.30;90.50;;;;;;5023333;28;20197;-75
2020/12/11 07:47:10;;;;;;;32.63;12.80;;;1.40;90.70;;;;;;5026204;28;20200;-76
2020/12/11 07:49:46;;;;;;;36.22;15.32;;;1.50;90.40;;;;;;5021373;28;20296;-74
2020/12/11 07:52:22;;;;;;;36.83;14.48;;;1.50;89.70;;;;;;5020841;28;20185;-75
2020/12/11 07:54:48;;;;;;;32.33;13.38;;;1.50;89.70;;;;;;5027739;28;20530;-75
2020/12/11 07:57:18;;;;;;;33.67;15.43;;;1.50;89.60;;;;;;5032763;28;20188;-76
2020/12/11 07:59:59;;;;;;;32.80;13.55;;;1.60;89.20;;;;;;5032454;28;20526;-75
2020/12/11 08:02:26;;;;;;;31.83;13.32;;;1.60;89.00;;;;;;5026855;28;20289;-75
2020/12/11 08:04:52;;;;;;;29.48;13.82;;;1.60;88.40;;;;;;5059152;28;20181;-75
2020/12/11 08:07:23;;;;;;;36.65;14.70;;;1.50;88.40;;;;;;5036648;28;20184;-75
2020/12/11 08:09:48;;;;;;;27.98;13.43;;;1.40;89.20;;;;;;5032846;28;20280;-75
2020/12/11 08:12:17;;;;;;;33.73;14.47;;;1.50;89.50;;;;;;5032555;28;20189;-74
2020/12/11 08:14:46;;;;;;;37.22;13.45;;;1.60;89.30;;;;;;5031828;28;20549;-76
2020/12/11 08:17:13;;;;;;;30.90;12.85;;;1.60;88.90;;;;;;5033821;28;20216;-75
2020/12/11 08:19:40;;;;;;;30.85;15.35;;;1.70;88.60;;;;;;5033135;28;20205;-76
2020/12/11 08:22:14;;;;;;;34.20;13.60;;;1.80;88.70;;;;;;5034599;28;20559;-75
2020/12/11 08:24:40;;;;;;;36.55;14.30;;;1.90;88.60;;;;;;5033536;28;20628;-74
2020/12/11 08:27:06;;;;;;;35.38;14.80;;;2.00;88.40;;;;;;5032557;28;20695;-70
2020/12/11 08:29:32;;;;;;;31.27;13.35;;;2.00;87.80;;;;;;5031210;28;20216;-76
2020/12/11 08:31:58;;;;;;;38.40;14.00;;;2.10;87.40;;;;;;5032846;28;20189;-75
2020/12/11 08:34:30;;;;;;;33.88;13.93;;;2.10;86.60;;;;;;5030843;28;20467;-74
2020/12/11 08:37:03;;;;;;;41.67;14.18;;;2.00;86.60;;;;;;5029601;28;20524;-75
2020/12/11 08:39:30;;;;;;;34.20;15.38;;;2.00;86.80;;;;;;5019801;28;20553;-74
2020/12/11 08:42:23;;;;;;;34.20;14.30;;;1.90;87.10;;;;;;5032866;28;20189;-74
2020/12/11 08:45:21;;;;;;;40.78;16.25;;;1.90;87.60;;;;;;5031139;28;20197;-75
2020/12/11 08:50:30;;;;;;;35.40;15.88;;;1.90;87.30;;;;;;5026272;28;20208;-75
2020/12/11 08:52:57;;;;;;;66.88;25.55;;;1.80;87.10;;;;;;5022286;28;20239;-75
2020/12/11 08:55:22;;;;;;;53.47;21.35;;;1.90;87.30;;;;;;5064845;28;20288;-75
2020/12/11 08:57:49;;;;;;;43.27;15.97;;;2.00;87.60;;;;;;5035426;28;20204;-75
2020/12/11 09:00:17;;;;;;;30.83;14.35;;;2.20;87.30;;;;;;5034945;28;20204;-76
2020/12/11 09:02:43;;;;;;;34.08;14.80;;;2.30;86.50;;;;;;5025681;28;20272;-75
2020/12/11 09:05:08;;;;;;;34.93;14.97;;;2.40;86.00;;;;;;5019438;28;20209;-73
2020/12/11 09:07:34;;;;;;;36.63;15.63;;;2.60;86.20;;;;;;5035209;28;20489;-74
2020/12/11 09:10:00;;;;;;;32.60;14.77;;;2.70;85.50;;;;;;5035410;28;20260;-74
2020/12/11 09:12:26;;;;;;;27.30;12.30;;;2.90;84.60;;;;;;5034764;28;20197;-75
2020/12/11 09:14:52;;;;;;;33.72;14.32;;;3.00;83.80;;;;;;5041023;28;20540;-74
2020/12/11 09:17:18;;;;;;;36.10;13.50;;;3.20;83.00;;;;;;5034030;28;20268;-74
2020/12/11 09:19:43;;;;;;;34.00;14.17;;;3.20;82.20;;;;;;5029568;28;20451;-75
2020/12/11 09:22:09;;;;;;;30.97;14.90;;;3.30;82.20;;;;;;5030159;28;20181;-73
2020/12/11 09:24:35;;;;;;;32.20;13.90;;;3.30;81.70;;;;;;5017643;28;20193;-75
2020/12/11 09:27:00;;;;;;;34.77;14.23;;;3.30;81.70;;;;;;5023253;28;20190;-76
2020/12/11 09:29:39;;;;;;;39.53;14.13;;;3.40;81.50;;;;;;5023083;28;20189;-75
2020/12/11 09:32:07;;;;;;;39.33;13.77;;;3.50;80.90;;;;;;5028229;28;20690;-76
2020/12/11 09:34:34;;;;;;;29.60;12.30;;;3.60;80.20;;;;;;5026667;28;20956;-75
2020/12/11 09:37:02;;;;;;;29.60;13.38;;;3.60;79.90;;;;;;5032916;28;20188;-74
2020/12/11 09:39:28;;;;;;;27.95;12.07;;;3.60;79.70;;;;;;5017733;28;20269;-76
2020/12/11 09:42:31;;;;;;;27.37;12.70;;;3.60;79.70;;;;;;5033036;28;20216;-74
2020/12/11 09:44:52;;;;;;;23.88;10.88;;;3.50;80.00;;;;;;5031984;28;20575;-75
2020/12/11 09:52:38;;;;;;;25.90;12.35;;;3.30;81.20;;;;;;5032075;28;20506;-75
2020/12/11 09:55:04;;;;;;;26.42;11.55;;;3.30;82.10;;;;;;5032837;28;20181;-74
2020/12/11 09:57:30;;;;;;;28.70;12.60;;;3.40;81.90;;;;;;5018464;28;20186;-74
2020/12/11 09:59:59;;;;;;;29.37;12.40;;;3.60;81.50;;;;;;5029111;28;20227;-74
2020/12/11 10:04:53;;;;;;;25.83;11.45;;;3.90;80.50;;;;;;5017064;28;20722;-75
2020/12/11 10:07:19;;;;;;;29.03;10.87;;;4.00;80.00;;;;;;5020352;28;20193;-75
2020/12/11 10:09:45;;;;;;;26.57;11.23;;;4.20;79.20;;;;;;5034069;28;20212;-77
2020/12/11 10:12:11;;;;;;;23.60;10.23;;;4.30;77.80;;;;;;5031764;28;20189;-75
2020/12/11 10:14:43;;;;;;;25.05;11.00;;;4.30;77.40;;;;;;5030605;28;20205;-76
2020/12/11 10:17:14;;;;;;;21.80;10.45;;;4.30;77.70;;;;;;5031665;28;20212;-76
2020/12/11 10:19:39;;;;;;;26.70;11.18;;;4.30;78.00;;;;;;5034666;28;20193;-75
2020/12/11 10:22:05;;;;;;;22.50;10.73;;;4.30;78.10;;;;;;5038430;28;20687;-75
2020/12/11 10:24:31;;;;;;;21.43;9.93;;;4.40;78.40;;;;;;5037191;28;20280;-75
2020/12/11 10:26:57;;;;;;;27.00;11.23;;;4.40;77.70;;;;;;5036222;28;20618;-75
2020/12/11 10:29:23;;;;;;;22.55;10.82;;;4.50;77.30;;;;;;5038412;28;20181;-75
2020/12/11 10:31:49;;;;;;;26.17;11.50;;;4.60;77.40;;;;;;5024961;28;20379;-74
2020/12/11 10:34:16;;;;;;;23.50;11.20;;;4.70;77.30;;;;;;5027196;28;20255;-75
2020/12/11 10:36:42;;;;;;;24.23;10.10;;;4.80;76.50;;;;;;5029687;28;20205;-75
2020/12/11 10:39:09;;;;;;;21.45;9.88;;;4.70;76.50;;;;;;5031118;28;20427;-74
2020/12/11 10:41:35;;;;;;;25.25;10.00;;;4.50;77.00;;;;;;5031037;28;20336;-75
2020/12/11 10:44:01;;;;;;;25.30;11.10;;;4.50;78.10;;;;;;5030469;28;20716;-75
2020/12/11 10:46:27;;;;;;;31.60;10.80;;;4.50;77.70;;;;;;5030555;28;20438;-75
2020/12/11 10:48:53;;;;;;;24.83;10.00;;;4.50;78.00;;;;;;5029453;28;20440;-76
2020/12/11 10:51:19;;;;;;;23.13;9.83;;;4.70;77.70;;;;;;5030870;28;20467;-75
2020/12/11 10:53:46;;;;;;;24.73;10.37;;;4.70;77.30;;;;;;5031081;28;20730;-75
2020/12/11 10:56:12;;;;;;;25.38;11.38;;;4.80;77.00;;;;;;5033130;28;20460;-75
2020/12/11 10:58:39;;;;;;;24.33;9.97;;;4.60;76.50;;;;;;5037176;28;20236;-74
2020/12/11 11:01:10;;;;;;;22.90;10.40;;;4.40;77.40;;;;;;5040162;28;20440;-75
2020/12/11 11:03:37;;;;;;;21.42;9.35;;;4.60;77.80;;;;;;5039542;28;20818;-75
2020/12/11 11:06:17;;;;;;;24.70;10.30;;;4.70;77.30;;;;;;5030672;28;20276;-75
2020/12/11 11:11:34;;;;;;;21.20;8.60;;;4.80;77.00;;;;;;5034408;28;20446;-76
2020/12/11 11:16:52;;;;;;;26.13;9.33;;;4.90;76.10;;;;;;5033619;28;20185;-76
2020/12/11 11:19:36;;;;;;;20.83;10.07;;;4.90;76.40;;;;;;5023646;28;20460;-75
2020/12/11 11:29:34;;;;;;;21.07;9.47;;;4.80;77.30;;;;;;5034391;28;20452;-77
2020/12/11 11:32:00;;;;;;;25.37;9.80;;;4.80;77.60;;;;;;5034018;28;20196;-76
2020/12/11 11:34:26;;;;;;;22.37;9.90;;;4.90;77.40;;;;;;5031973;28;20236;-76
2020/12/11 11:36:52;;;;;;;21.30;9.93;;;4.90;77.00;;;;;;5014059;28;20216;-76
2020/12/11 11:39:18;;;;;;;18.70;9.07;;;4.90;77.00;;;;;;5016398;28;20763;-76
2020/12/11 11:41:47;;;;;;;23.00;10.63;;;4.90;76.10;;;;;;5033631;28;20424;-75
2020/12/11 11:46:52;;;;;;;20.35;8.77;;;4.80;76.70;;;;;;5034955;28;20471;-75
2020/12/11 11:49:24;;;;;;;20.55;9.50;;;4.80;77.10;;;;;;5033755;28;20238;-76
2020/12/11 11:52:04;;;;;;;24.70;10.50;;;4.60;77.70;;;;;;5034935;28;20189;-76
2020/12/11 11:54:30;;;;;;;21.20;9.75;;;4.70;78.40;;;;;;5014879;28;20907;-74
2020/12/11 11:56:59;;;;;;;26.63;9.80;;;4.60;78.70;;;;;;5013288;28;20214;-77
2020/12/11 11:59:25;;;;;;;25.10;10.70;;;4.50;79.00;;;;;;5027100;28;20182;-76
2020/12/11 12:01:54;;;;;;;24.33;11.60;;;4.60;79.20;;;;;;5013077;28;20421;-75
2020/12/11 12:04:21;;;;;;;19.63;10.30;;;4.60;78.90;;;;;;5019883;28;20419;-76
2020/12/11 12:06:47;;;;;;;26.05;10.60;;;4.60;79.20;;;;;;5019610;28;20189;-75
2020/12/11 12:09:13;;;;;;;24.10;10.93;;;4.70;79.50;;;;;;5018188;28;20197;-75
2020/12/11 12:11:38;;;;;;;22.93;10.57;;;4.80;78.90;;;;;;5016532;28;20190;-75
2020/12/11 12:14:04;;;;;;;25.80;9.67;;;4.80;78.70;;;;;;5023709;28;20457;-75
2020/12/11 12:16:31;;;;;;;27.83;10.57;;;4.90;78.60;;;;;;5013204;28;20177;-76
2020/12/11 12:18:58;;;;;;;23.60;9.80;;;4.90;78.40;;;;;;5025678;28;20197;-74
2020/12/11 12:29:31;;;;;;;27.07;11.17;;;5.00;79.20;;;;;;5019123;28;20436;-75
2020/12/11 12:32:03;;;;;;;23.53;10.70;;;5.10;78.60;;;;;;5034237;28;20427;-76
2020/12/11 12:45:26;;;;;;;23.40;10.60;;;5.30;78.10;;;;;;4984166;28;20514;-75
2020/12/11 12:47:52;;;;;;;27.40;11.50;;;5.40;78.10;;;;;;4993370;28;20908;-75
2020/12/11 12:50:17;;;;;;;24.37;11.27;;;5.50;77.40;;;;;;4993042;28;20588;-76
2020/12/11 12:52:43;;;;;;;28.07;12.60;;;5.50;76.80;;;;;;4990823;28;20230;-76
2020/12/11 12:55:09;;;;;;;32.00;13.30;;;5.50;77.00;;;;;;4990208;28;20678;-74
2020/12/11 13:05:29;;;;;;;26.87;12.87;;;5.60;77.30;;;;;;4981970;28;20260;-74
2020/12/11 13:07:55;;;;;;;26.87;12.17;;;5.60;77.10;;;;;;4988457;28;21270;-76
2020/12/11 13:10:21;;;;;;;21.50;10.50;;;5.50;77.10;;;;;;4973821;28;20218;-76
2020/12/11 13:12:47;;;;;;;23.23;11.80;;;5.30;78.10;;;;;;4990534;28;20272;-75
2020/12/11 13:15:14;;;;;;;29.47;11.20;;;5.20;78.60;;;;;;4990075;28;20222;-76
2020/12/11 13:17:40;;;;;;;26.13;11.23;;;5.20;78.60;;;;;;4985958;28;20437;-76
2020/12/11 13:20:09;;;;;;;26.07;11.93;;;5.20;78.60;;;;;;5025272;28;20443;-77
2020/12/11 13:27:56;;;;;;;32.43;14.43;;;5.30;78.90;;;;;;5034260;28;20450;-78
2020/12/11 13:30:21;;;;;;;26.67;12.10;;;5.30;78.00;;;;;;5031036;28;20444;-75
2020/12/11 13:32:47;;;;;;;24.43;10.43;;;5.40;78.10;;;;;;5031963;28;20209;-76
2020/12/11 13:35:13;;;;;;;24.80;11.63;;;5.40;78.10;;;;;;5030100;28;20192;-77
2020/12/11 13:37:39;;;;;;;26.60;11.23;;;5.40;78.10;;;;;;5031541;28;20188;-75
2020/12/11 13:40:07;;;;;;;25.47;11.47;;;5.30;77.80;;;;;;5030288;28;20212;-75
2020/12/11 13:42:33;;;;;;;22.80;10.60;;;5.30;77.80;;;;;;5031267;28;20438;-76